Terminal Aerodrome Forecast
Issued by NWS

Home | Current Version | Previous Version | Text Only | Print | Product List | Glossary On
Versions: 1 2 3 4 5 6 7 8 9 10 11 12 13 14 15 16 17 18
000
FTUS43 KFGF 251700
TAFDVL
TAF
KDVL 251720Z 2518/2618 13007KT P6SM OVC013
     FM252200 07015KT 2SM -SN OVC010
     FM260200 03017KT 4SM -SN OVC015
     FM261200 36013KT P6SM OVC020
     FM261500 36015G22KT P6SM SCT020
      AMD LTD TO CLD VIS AND WIND=

USA.gov is the U.S. government's official web portal to all federal, state and local government web resources and services.